sensor_id;sensor_type;location;lat;lon;timestamp;pressure;altitude;pressure_sealevel;temperature;humidity
27613;BME280;15036;48.094;-1.690;2023-04-01T00:00:57;100309.69;;;14.84;60.00
27613;BME280;15036;48.094;-1.690;2023-04-01T00:03:23;100321.66;;;14.77;60.51
27613;BME280;15036;48.094;-1.690;2023-04-01T00:05:49;100320.22;;;14.98;59.70
27613;BME280;15036;48.094;-1.690;2023-04-01T00:08:14;100308.00;;;14.71;60.13
27613;BME280;15036;48.094;-1.690;2023-04-01T00:10:40;100317.91;;;14.72;59.82
27613;BME280;15036;48.094;-1.690;2023-04-01T00:13:05;100320.19;;;14.63;59.87
27613;BME280;15036;48.094;-1.690;2023-04-01T00:15:31;100316.75;;;14.80;59.38
27613;BME280;15036;48.094;-1.690;2023-04-01T00:17:56;100316.97;;;14.78;59.13
27613;BME280;15036;48.094;-1.690;2023-04-01T00:20:22;100308.72;;;14.78;59.06
27613;BME280;15036;48.094;-1.690;2023-04-01T00:22:47;100324.84;;;14.63;59.77
27613;BME280;15036;48.094;-1.690;2023-04-01T00:25:13;100316.63;;;14.74;59.36
27613;BME280;15036;48.094;-1.690;2023-04-01T00:27:38;100326.94;;;14.38;60.05
27613;BME280;15036;48.094;-1.690;2023-04-01T00:30:04;100327.63;;;14.33;60.13
27613;BME280;15036;48.094;-1.690;2023-04-01T00:32:29;100324.59;;;14.53;59.92
27613;BME280;15036;48.094;-1.690;2023-04-01T00:34:56;100317.97;;;14.42;60.15
27613;BME280;15036;48.094;-1.690;2023-04-01T00:37:24;100314.16;;;14.43;60.16
27613;BME280;15036;48.094;-1.690;2023-04-01T00:39:50;100333.59;;;14.71;59.75
27613;BME280;15036;48.094;-1.690;2023-04-01T00:42:15;100330.66;;;14.43;60.54
27613;BME280;15036;48.094;-1.690;2023-04-01T00:44:41;100324.16;;;14.67;59.89
27613;BME280;15036;48.094;-1.690;2023-04-01T00:47:06;100332.16;;;14.81;59.75
27613;BME280;15036;48.094;-1.690;2023-04-01T00:49:38;100336.41;;;14.53;60.87
27613;BME280;15036;48.094;-1.690;2023-04-01T00:52:05;100329.50;;;14.74;60.50
27613;BME280;15036;48.094;-1.690;2023-04-01T00:54:32;100328.94;;;14.13;62.23
27613;BME280;15036;48.094;-1.690;2023-04-01T00:57:00;100334.03;;;14.57;60.96
27613;BME280;15036;48.094;-1.690;2023-04-01T00:59:28;100332.16;;;14.92;60.19
27613;BME280;15036;48.094;-1.690;2023-04-01T01:01:56;100325.97;;;14.85;59.78
27613;BME280;15036;48.094;-1.690;2023-04-01T01:04:22;100334.44;;;15.18;58.57
27613;BME280;15036;48.094;-1.690;2023-04-01T01:06:54;100328.13;;;15.06;59.28
27613;BME280;15036;48.094;-1.690;2023-04-01T01:12:13;100336.09;;;14.85;59.42
27613;BME280;15036;48.094;-1.690;2023-04-01T01:17:12;100334.41;;;14.72;59.27
27613;BME280;15036;48.094;-1.690;2023-04-01T01:25:16;100345.91;;;14.81;58.70
27613;BME280;15036;48.094;-1.690;2023-04-01T01:27:45;100353.16;;;14.63;59.20
27613;BME280;15036;48.094;-1.690;2023-04-01T01:33:01;100344.88;;;14.52;59.69
27613;BME280;15036;48.094;-1.690;2023-04-01T01:35:35;100351.97;;;14.71;59.26
27613;BME280;15036;48.094;-1.690;2023-04-01T01:38:04;100348.63;;;14.69;59.23
27613;BME280;15036;48.094;-1.690;2023-04-01T01:40:31;100344.97;;;14.45;60.11
27613;BME280;15036;48.094;-1.690;2023-04-01T01:42:59;100351.69;;;14.49;59.86
27613;BME280;15036;48.094;-1.690;2023-04-01T01:45:28;100348.66;;;15.04;58.71
27613;BME280;15036;48.094;-1.690;2023-04-01T01:47:54;100353.88;;;14.70;59.32
27613;BME280;15036;48.094;-1.690;2023-04-01T01:50:21;100354.47;;;14.61;59.13
27613;BME280;15036;48.094;-1.690;2023-04-01T01:52:46;100348.28;;;14.77;59.19
27613;BME280;15036;48.094;-1.690;2023-04-01T01:57:49;100349.09;;;14.66;59.16
27613;BME280;15036;48.094;-1.690;2023-04-01T02:00:15;100353.69;;;15.07;58.30
27613;BME280;15036;48.094;-1.690;2023-04-01T02:02:44;100362.38;;;14.69;59.08
27613;BME280;15036;48.094;-1.690;2023-04-01T02:05:10;100354.19;;;14.51;59.28
27613;BME280;15036;48.094;-1.690;2023-04-01T02:07:36;100350.94;;;14.95;58.18
27613;BME280;15036;48.094;-1.690;2023-04-01T02:10:03;100347.00;;;15.03;58.03
27613;BME280;15036;48.094;-1.690;2023-04-01T02:12:29;100349.75;;;15.03;58.13
27613;BME280;15036;48.094;-1.690;2023-04-01T02:14:59;100351.72;;;14.72;58.57
27613;BME280;15036;48.094;-1.690;2023-04-01T02:17:26;100345.81;;;14.99;58.25
27613;BME280;15036;48.094;-1.690;2023-04-01T02:20:01;100353.88;;;14.70;58.95
27613;BME280;15036;48.094;-1.690;2023-04-01T02:22:30;100341.09;;;14.64;59.37
27613;BME280;15036;48.094;-1.690;2023-04-01T02:24:58;100338.06;;;14.54;59.98
27613;BME280;15036;48.094;-1.690;2023-04-01T02:27:23;100347.25;;;14.01;61.57
27613;BME280;15036;48.094;-1.690;2023-04-01T02:29:49;100337.88;;;14.67;59.50
27613;BME280;15036;48.094;-1.690;2023-04-01T02:32:15;100333.72;;;14.88;59.10
27613;BME280;15036;48.094;-1.690;2023-04-01T02:34:41;100344.97;;;14.45;59.88
27613;BME280;15036;48.094;-1.690;2023-04-01T02:37:07;100333.72;;;14.88;58.97
27613;BME280;15036;48.094;-1.690;2023-04-01T02:39:33;100336.81;;;14.92;58.58
27613;BME280;15036;48.094;-1.690;2023-04-01T02:41:58;100341.94;;;14.65;59.24
27613;BME280;15036;48.094;-1.690;2023-04-01T02:44:23;100348.97;;;14.61;59.11
27613;BME280;15036;48.094;-1.690;2023-04-01T02:46:49;100349.31;;;14.64;59.37
27613;BME280;15036;48.094;-1.690;2023-04-01T02:49:14;100339.97;;;14.54;59.40
27613;BME280;15036;48.094;-1.690;2023-04-01T02:51:39;100341.00;;;15.06;58.44
27613;BME280;15036;48.094;-1.690;2023-04-01T02:54:05;100340.69;;;14.49;59.48
27613;BME280;15036;48.094;-1.690;2023-04-01T02:56:30;100342.03;;;14.58;59.40
27613;BME280;15036;48.094;-1.690;2023-04-01T02:58:55;100340.56;;;14.56;59.76
27613;BME280;15036;48.094;-1.690;2023-04-01T03:01:21;100345.22;;;14.44;60.10
27613;BME280;15036;48.094;-1.690;2023-04-01T03:03:47;100340.06;;;14.36;60.23
27613;BME280;15036;48.094;-1.690;2023-04-01T03:06:13;100351.03;;;14.36;60.87
27613;BME280;15036;48.094;-1.690;2023-04-01T03:08:39;100344.31;;;14.61;60.10
27613;BME280;15036;48.094;-1.690;2023-04-01T03:11:04;100340.31;;;14.87;59.31
27613;BME280;15036;48.094;-1.690;2023-04-01T03:13:30;100349.31;;;14.64;59.88
27613;BME280;15036;48.094;-1.690;2023-04-01T03:15:55;100339.69;;;14.85;58.99
27613;BME280;15036;48.094;-1.690;2023-04-01T03:18:21;100349.00;;;14.72;59.36
27613;BME280;15036;48.094;-1.690;2023-04-01T03:20:46;100350.19;;;14.76;59.67
27613;BME280;15036;48.094;-1.690;2023-04-01T03:23:12;100347.50;;;14.47;60.26
27613;BME280;15036;48.094;-1.690;2023-04-01T03:25:37;100355.09;;;14.74;59.63
27613;BME280;15036;48.094;-1.690;2023-04-01T03:28:02;100351.63;;;14.79;59.69
27613;BME280;15036;48.094;-1.690;2023-04-01T03:30:28;100348.75;;;14.74;59.54
27613;BME280;15036;48.094;-1.690;2023-04-01T03:32:55;100346.50;;;14.94;59.01
27613;BME280;15036;48.094;-1.690;2023-04-01T03:35:20;100353.25;;;14.57;59.68
27613;BME280;15036;48.094;-1.690;2023-04-01T03:37:46;100344.75;;;14.47;60.19
27613;BME280;15036;48.094;-1.690;2023-04-01T03:40:11;100367.00;;;14.57;59.75
27613;BME280;15036;48.094;-1.690;2023-04-01T03:42:36;100360.44;;;14.28;60.57
27613;BME280;15036;48.094;-1.690;2023-04-01T03:45:02;100359.16;;;14.42;59.99
27613;BME280;15036;48.094;-1.690;2023-04-01T03:47:28;100367.88;;;14.39;60.13
27613;BME280;15036;48.094;-1.690;2023-04-01T03:49:53;100374.31;;;14.33;60.33
27613;BME280;15036;48.094;-1.690;2023-04-01T03:52:18;100350.94;;;14.24;60.12
27613;BME280;15036;48.094;-1.690;2023-04-01T03:54:44;100373.16;;;14.23;60.90
27613;BME280;15036;48.094;-1.690;2023-04-01T03:57:09;100383.25;;;14.29;60.26
27613;BME280;15036;48.094;-1.690;2023-04-01T03:59:34;100379.28;;;14.07;61.58
27613;BME280;15036;48.094;-1.690;2023-04-01T04:02:00;100377.97;;;14.09;61.25
27613;BME280;15036;48.094;-1.690;2023-04-01T04:04:25;100378.06;;;14.50;60.38
27613;BME280;15036;48.094;-1.690;2023-04-01T04:06:51;100371.25;;;14.41;60.35
27613;BME280;15036;48.094;-1.690;2023-04-01T04:09:17;100376.66;;;14.48;60.50
27613;BME280;15036;48.094;-1.690;2023-04-01T04:11:42;100397.44;;;14.08;61.30
27613;BME280;15036;48.094;-1.690;2023-04-01T04:14:07;100369.28;;;14.30;60.61
27613;BME280;15036;48.094;-1.690;2023-04-01T04:16:34;100371.81;;;14.73;59.37
27613;BME280;15036;48.094;-1.690;2023-04-01T04:19:03;100374.34;;;14.45;60.04
27613;BME280;15036;48.094;-1.690;2023-04-01T04:21:28;100375.91;;;14.23;60.26
27613;BME280;15036;48.094;-1.690;2023-04-01T04:23:53;100372.41;;;14.34;59.67
27613;BME280;15036;48.094;-1.690;2023-04-01T04:26:19;100378.00;;;14.68;59.21
27613;BME280;15036;48.094;-1.690;2023-04-01T04:28:44;100369.09;;;14.85;58.42
27613;BME280;15036;48.094;-1.690;2023-04-01T04:31:10;100372.72;;;14.55;59.40
27613;BME280;15036;48.094;-1.690;2023-04-01T04:33:35;100374.34;;;14.86;58.41
27613;BME280;15036;48.094;-1.690;2023-04-01T04:36:01;100358.41;;;14.65;58.88
27613;BME280;15036;48.094;-1.690;2023-04-01T04:38:26;100363.97;;;14.47;58.81
27613;BME280;15036;48.094;-1.690;2023-04-01T04:40:51;100363.88;;;14.53;58.45
27613;BME280;15036;48.094;-1.690;2023-04-01T04:43:17;100359.41;;;14.82;57.73
27613;BME280;15036;48.094;-1.690;2023-04-01T04:45:43;100369.38;;;14.53;58.60
27613;BME280;15036;48.094;-1.690;2023-04-01T04:48:09;100371.91;;;14.66;58.80
27613;BME280;15036;48.094;-1.690;2023-04-01T04:50:34;100365.53;;;14.54;59.00
27613;BME280;15036;48.094;-1.690;2023-04-01T04:53:00;100368.47;;;14.71;58.83
27613;BME280;15036;48.094;-1.690;2023-04-01T04:55:25;100370.19;;;14.54;59.10
27613;BME280;15036;48.094;-1.690;2023-04-01T04:57:50;100365.50;;;14.43;60.23
27613;BME280;15036;48.094;-1.690;2023-04-01T05:00:16;100368.63;;;14.46;60.11
27613;BME280;15036;48.094;-1.690;2023-04-01T05:02:41;100364.91;;;14.41;59.93
27613;BME280;15036;48.094;-1.690;2023-04-01T05:05:06;100365.19;;;14.51;60.00
27613;BME280;15036;48.094;-1.690;2023-04-01T05:07:32;100376.72;;;14.71;59.60
27613;BME280;15036;48.094;-1.690;2023-04-01T05:09:57;100377.41;;;14.37;60.74
27613;BME280;15036;48.094;-1.690;2023-04-01T05:12:23;100389.81;;;14.28;61.03
27613;BME280;15036;48.094;-1.690;2023-04-01T05:14:48;100383.91;;;13.76;62.37
27613;BME280;15036;48.094;-1.690;2023-04-01T05:17:13;100379.16;;;13.83;62.65
27613;BME280;15036;48.094;-1.690;2023-04-01T05:19:38;100391.47;;;14.11;61.94
27613;BME280;15036;48.094;-1.690;2023-04-01T05:22:04;100387.38;;;14.02;62.22
27613;BME280;15036;48.094;-1.690;2023-04-01T05:24:30;100387.38;;;13.83;62.93
27613;BME280;15036;48.094;-1.690;2023-04-01T05:26:55;100387.44;;;13.95;62.71
27613;BME280;15036;48.094;-1.690;2023-04-01T05:29:22;100388.84;;;13.86;62.57
27613;BME280;15036;48.094;-1.690;2023-04-01T05:31:47;100397.50;;;14.01;62.08
27613;BME280;15036;48.094;-1.690;2023-04-01T05:34:12;100400.56;;;14.11;61.85
27613;BME280;15036;48.094;-1.690;2023-04-01T05:36:38;100377.94;;;13.79;62.82
27613;BME280;15036;48.094;-1.690;2023-04-01T05:39:03;100379.38;;;13.82;62.57
27613;BME280;15036;48.094;-1.690;2023-04-01T05:41:28;100372.19;;;13.99;62.07
27613;BME280;15036;48.094;-1.690;2023-04-01T05:43:54;100372.38;;;13.86;62.33
27613;BME280;15036;48.094;-1.690;2023-04-01T05:46:19;100362.28;;;14.16;61.39
27613;BME280;15036;48.094;-1.690;2023-04-01T05:48:44;100368.28;;;14.07;61.48
27613;BME280;15036;48.094;-1.690;2023-04-01T05:51:13;100370.13;;;14.13;61.15
27613;BME280;15036;48.094;-1.690;2023-04-01T05:53:39;100370.72;;;14.15;60.97
27613;BME280;15036;48.094;-1.690;2023-04-01T05:56:05;100377.09;;;14.27;60.65
27613;BME280;15036;48.094;-1.690;2023-04-01T05:58:30;100388.38;;;13.89;61.56
27613;BME280;15036;48.094;-1.690;2023-04-01T06:01:06;100392.25;;;14.36;60.75
27613;BME280;15036;48.094;-1.690;2023-04-01T06:03:31;100390.78;;;14.15;60.61
27613;BME280;15036;48.094;-1.690;2023-04-01T06:05:57;100388.09;;;14.27;60.46
27613;BME280;15036;48.094;-1.690;2023-04-01T06:08:22;100389.28;;;14.49;60.01
27613;BME280;15036;48.094;-1.690;2023-04-01T06:10:58;100393.50;;;14.51;59.92
27613;BME280;15036;48.094;-1.690;2023-04-01T06:15:53;100401.53;;;14.17;60.81
27613;BME280;15036;48.094;-1.690;2023-04-01T06:26:05;100409.75;;;14.17;61.07
27613;BME280;15036;48.094;-1.690;2023-04-01T06:39:32;100403.53;;;13.91;61.32
27613;BME280;15036;48.094;-1.690;2023-04-01T06:42:13;100409.09;;;14.21;60.91
27613;BME280;15036;48.094;-1.690;2023-04-01T06:49:55;100402.97;;;14.37;60.55
27613;BME280;15036;48.094;-1.690;2023-04-01T06:55:17;100410.75;;;14.22;60.97
27613;BME280;15036;48.094;-1.690;2023-04-01T06:57:49;100405.44;;;14.09;61.18
27613;BME280;15036;48.094;-1.690;2023-04-01T07:00:19;100402.06;;;14.07;61.03
27613;BME280;15036;48.094;-1.690;2023-04-01T07:02:49;100404.19;;;14.41;60.36
27613;BME280;15036;48.094;-1.690;2023-04-01T07:05:18;100405.03;;;14.24;60.55
27613;BME280;15036;48.094;-1.690;2023-04-01T07:07:45;100398.50;;;14.54;59.60
27613;BME280;15036;48.094;-1.690;2023-04-01T07:10:17;100400.69;;;14.34;60.02
27613;BME280;15036;48.094;-1.690;2023-04-01T07:15:20;100400.53;;;15.00;58.30
27613;BME280;15036;48.094;-1.690;2023-04-01T07:17:48;100399.28;;;14.73;58.64
27613;BME280;15036;48.094;-1.690;2023-04-01T07:20:22;100398.16;;;15.15;57.76
27613;BME280;15036;48.094;-1.690;2023-04-01T07:22:49;100403.31;;;15.23;57.47
27613;BME280;15036;48.094;-1.690;2023-04-01T07:27:41;100401.75;;;15.27;57.42
27613;BME280;15036;48.094;-1.690;2023-04-01T07:30:12;100402.34;;;15.29;57.25
27613;BME280;15036;48.094;-1.690;2023-04-01T07:32:49;100416.25;;;14.82;58.14
27613;BME280;15036;48.094;-1.690;2023-04-01T07:38:11;100414.91;;;14.61;58.85
27613;BME280;15036;48.094;-1.690;2023-04-01T07:46:17;100417.78;;;15.30;57.13
27613;BME280;15036;48.094;-1.690;2023-04-01T07:56:35;100414.06;;;16.06;55.04
27613;BME280;15036;48.094;-1.690;2023-04-01T08:04:25;100406.34;;;15.68;54.96
27613;BME280;15036;48.094;-1.690;2023-04-01T08:06:57;100416.06;;;16.10;54.12
27613;BME280;15036;48.094;-1.690;2023-04-01T08:09:32;100420.47;;;15.60;54.15
27613;BME280;15036;48.094;-1.690;2023-04-01T08:17:20;100415.13;;;16.05;53.97
27613;BME280;15036;48.094;-1.690;2023-04-01T08:22:22;100422.84;;;15.68;53.86
27613;BME280;15036;48.094;-1.690;2023-04-01T08:24:50;100418.06;;;15.75;54.49
27613;BME280;15036;48.094;-1.690;2023-04-01T08:30:15;100408.28;;;16.19;53.42
27613;BME280;15036;48.094;-1.690;2023-04-01T08:32:39;100421.75;;;15.92;53.68
27613;BME280;15036;48.094;-1.690;2023-04-01T08:35:14;100424.50;;;15.69;53.59
27613;BME280;15036;48.094;-1.690;2023-04-01T08:37:41;100426.50;;;15.97;53.43
27613;BME280;15036;48.094;-1.690;2023-04-01T08:40:22;100431.44;;;16.06;53.13
27613;BME280;15036;48.094;-1.690;2023-04-01T08:43:05;100437.53;;;16.08;53.31
27613;BME280;15036;48.094;-1.690;2023-04-01T08:53:03;100426.31;;;16.26;52.58
27613;BME280;15036;48.094;-1.690;2023-04-01T09:14:02;100425.22;;;16.39;51.43
27613;BME280;15036;48.094;-1.690;2023-04-01T09:16:30;100419.78;;;16.16;52.09
27613;BME280;15036;48.094;-1.690;2023-04-01T09:27:10;100425.31;;;17.00;49.87
27613;BME280;15036;48.094;-1.690;2023-04-01T09:35:06;100419.41;;;16.12;50.68
27613;BME280;15036;48.094;-1.690;2023-04-01T09:42:42;100426.81;;;16.23;50.10
27613;BME280;15036;48.094;-1.690;2023-04-01T09:52:52;100412.94;;;17.03;49.07
27613;BME280;15036;48.094;-1.690;2023-04-01T10:21:09;100449.09;;;15.29;55.65
27613;BME280;15036;48.094;-1.690;2023-04-01T10:36:52;100434.34;;;17.46;50.42
27613;BME280;15036;48.094;-1.690;2023-04-01T10:39:34;100432.41;;;16.96;51.43
27613;BME280;15036;48.094;-1.690;2023-04-01T10:44:30;100427.09;;;16.62;51.71
27613;BME280;15036;48.094;-1.690;2023-04-01T11:41:55;100467.78;;;14.86;62.27
27613;BME280;15036;48.094;-1.690;2023-04-01T11:44:24;100465.00;;;15.27;61.82
27613;BME280;15036;48.094;-1.690;2023-04-01T11:47:13;100462.84;;;14.76;62.87
27613;BME280;15036;48.094;-1.690;2023-04-01T11:54:47;100469.91;;;15.25;61.93
27613;BME280;15036;48.094;-1.690;2023-04-01T12:04:44;100455.72;;;16.61;56.16
27613;BME280;15036;48.094;-1.690;2023-04-01T12:10:17;100448.63;;;16.65;54.27
27613;BME280;15036;48.094;-1.690;2023-04-01T12:17:50;100428.72;;;16.91;52.32
27613;BME280;15036;48.094;-1.690;2023-04-01T12:28:03;100433.13;;;17.53;50.51
27613;BME280;15036;48.094;-1.690;2023-04-01T12:30:45;100420.91;;;17.32;48.32
27613;BME280;15036;48.094;-1.690;2023-04-01T12:47:06;100454.25;;;16.70;51.52
27613;BME280;15036;48.094;-1.690;2023-04-01T12:52:09;100444.72;;;15.98;51.03
27613;BME280;15036;48.094;-1.690;2023-04-01T13:05:37;100502.41;;;15.70;48.98
27613;BME280;15036;48.094;-1.690;2023-04-01T13:15:36;100504.22;;;15.52;49.71
27613;BME280;15036;48.094;-1.690;2023-04-01T13:18:20;100496.06;;;15.57;49.90
27613;BME280;15036;48.094;-1.690;2023-04-01T13:42:23;100494.22;;;17.28;48.07
27613;BME280;15036;48.094;-1.690;2023-04-01T13:45:03;100494.81;;;17.30;47.82
27613;BME280;15036;48.094;-1.690;2023-04-01T14:00:38;100500.81;;;17.27;50.45
27613;BME280;15036;48.094;-1.690;2023-04-01T14:08:45;100500.59;;;17.79;46.51
27613;BME280;15036;48.094;-1.690;2023-04-01T14:11:31;100497.75;;;18.45;44.47
27613;BME280;15036;48.094;-1.690;2023-04-01T14:22:04;100486.72;;;20.20;40.07
27613;BME280;15036;48.094;-1.690;2023-04-01T14:27:24;100501.63;;;20.14;40.10
27613;BME280;15036;48.094;-1.690;2023-04-01T14:43:20;100540.19;;;15.51;59.54
27613;BME280;15036;48.094;-1.690;2023-04-01T14:50:57;100548.28;;;15.34;59.18
27613;BME280;15036;48.094;-1.690;2023-04-01T14:53:29;100543.59;;;15.65;58.15
27613;BME280;15036;48.094;-1.690;2023-04-01T14:55:57;100535.91;;;16.47;56.49
27613;BME280;15036;48.094;-1.690;2023-04-01T14:58:24;100537.97;;;16.80;55.28
27613;BME280;15036;48.094;-1.690;2023-04-01T15:00:58;100541.53;;;16.92;56.88
27613;BME280;15036;48.094;-1.690;2023-04-01T15:06:32;100533.75;;;17.79;50.34
27613;BME280;15036;48.094;-1.690;2023-04-01T15:19:14;100523.44;;;18.89;42.37
27613;BME280;15036;48.094;-1.690;2023-04-01T15:21:48;100541.13;;;19.63;41.16
27613;BME280;15036;48.094;-1.690;2023-04-01T15:26:50;100537.88;;;20.49;39.40
27613;BME280;15036;48.094;-1.690;2023-04-01T15:29:22;100534.44;;;20.32;38.83
27613;BME280;15036;48.094;-1.690;2023-04-01T15:31:54;100537.53;;;20.93;38.17
27613;BME280;15036;48.094;-1.690;2023-04-01T15:34:33;100524.66;;;21.69;37.29
27613;BME280;15036;48.094;-1.690;2023-04-01T15:49:57;100556.72;;;20.11;38.72
27613;BME280;15036;48.094;-1.690;2023-04-01T15:55:08;100556.97;;;19.41;38.59
27613;BME280;15036;48.094;-1.690;2023-04-01T15:57:44;100567.44;;;19.97;39.72
27613;BME280;15036;48.094;-1.690;2023-04-01T16:00:22;100578.97;;;21.14;38.09
27613;BME280;15036;48.094;-1.690;2023-04-01T16:20:43;100602.63;;;17.85;42.82
27613;BME280;15036;48.094;-1.690;2023-04-01T16:25:57;100594.75;;;18.44;41.69
27613;BME280;15036;48.094;-1.690;2023-04-01T16:28:31;100598.94;;;18.13;41.45
27613;BME280;15036;48.094;-1.690;2023-04-01T16:35:58;100617.28;;;17.86;40.96
27613;BME280;15036;48.094;-1.690;2023-04-01T16:38:43;100610.66;;;17.70;41.23
27613;BME280;15036;48.094;-1.690;2023-04-01T16:43:43;100609.13;;;18.12;41.91
27613;BME280;15036;48.094;-1.690;2023-04-01T16:51:46;100620.78;;;17.81;41.65
27613;BME280;15036;48.094;-1.690;2023-04-01T16:56:50;100634.56;;;17.65;43.13
27613;BME280;15036;48.094;-1.690;2023-04-01T17:01:49;100650.44;;;18.19;41.96
27613;BME280;15036;48.094;-1.690;2023-04-01T17:06:49;100650.19;;;17.59;43.57
27613;BME280;15036;48.094;-1.690;2023-04-01T17:11:56;100662.50;;;18.46;41.89
27613;BME280;15036;48.094;-1.690;2023-04-01T17:14:32;100658.97;;;18.67;41.40
27613;BME280;15036;48.094;-1.690;2023-04-01T17:20:09;100660.47;;;18.96;41.43
27613;BME280;15036;48.094;-1.690;2023-04-01T17:35:37;100705.38;;;17.31;45.68
27613;BME280;15036;48.094;-1.690;2023-04-01T17:38:18;100695.72;;;17.05;46.00
27613;BME280;15036;48.094;-1.690;2023-04-01T17:40:52;100704.06;;;17.22;46.43
27613;BME280;15036;48.094;-1.690;2023-04-01T17:45:54;100706.78;;;17.73;45.61
27613;BME280;15036;48.094;-1.690;2023-04-01T17:51:14;100723.78;;;17.54;46.33
27613;BME280;15036;48.094;-1.690;2023-04-01T17:58:58;100739.00;;;17.05;48.06
27613;BME280;15036;48.094;-1.690;2023-04-01T18:24:48;100776.88;;;16.98;50.50
27613;BME280;15036;48.094;-1.690;2023-04-01T18:27:23;100771.34;;;16.52;51.16
27613;BME280;15036;48.094;-1.690;2023-04-01T18:29:55;100782.41;;;16.63;50.90
27613;BME280;15036;48.094;-1.690;2023-04-01T18:32:37;100786.69;;;16.59;50.50
27613;BME280;15036;48.094;-1.690;2023-04-01T18:37:39;100784.91;;;16.65;50.41
27613;BME280;15036;48.094;-1.690;2023-04-01T18:40:24;100792.81;;;16.50;50.71
27613;BME280;15036;48.094;-1.690;2023-04-01T18:43:00;100790.78;;;17.14;49.70
27613;BME280;15036;48.094;-1.690;2023-04-01T18:45:28;100807.19;;;16.52;51.38
27613;BME280;15036;48.094;-1.690;2023-04-01T18:50:43;100812.63;;;16.70;50.86
27613;BME280;15036;48.094;-1.690;2023-04-01T18:55:39;100813.44;;;16.70;50.98
27613;BME280;15036;48.094;-1.690;2023-04-01T19:01:19;100822.56;;;16.41;52.15
27613;BME280;15036;48.094;-1.690;2023-04-01T19:03:28;100828.09;;;15.82;53.17
27613;BME280;15036;48.094;-1.690;2023-04-01T19:05:58;100840.03;;;16.35;52.60
27613;BME280;15036;48.094;-1.690;2023-04-01T19:08:33;100845.66;;;16.58;51.62
27613;BME280;15036;48.094;-1.690;2023-04-01T19:13:48;100846.16;;;16.67;51.65
27613;BME280;15036;48.094;-1.690;2023-04-01T19:18:58;100854.84;;;16.22;52.51
27613;BME280;15036;48.094;-1.690;2023-04-01T19:35:13;100882.00;;;15.71;55.50
27613;BME280;15036;48.094;-1.690;2023-04-01T19:48:00;100891.69;;;15.55;56.12
27613;BME280;15036;48.094;-1.690;2023-04-01T19:50:37;100897.59;;;15.77;55.76
27613;BME280;15036;48.094;-1.690;2023-04-01T19:53:14;100892.69;;;15.61;56.08
27613;BME280;15036;48.094;-1.690;2023-04-01T19:55:50;100902.94;;;15.72;56.11
27613;BME280;15036;48.094;-1.690;2023-04-01T20:00:47;100909.91;;;15.93;55.84
27613;BME280;15036;48.094;-1.690;2023-04-01T20:11:04;100929.88;;;16.06;55.99
27613;BME280;15036;48.094;-1.690;2023-04-01T20:13:36;100926.34;;;15.81;56.77
27613;BME280;15036;48.094;-1.690;2023-04-01T20:16:07;100940.78;;;15.58;57.40
27613;BME280;15036;48.094;-1.690;2023-04-01T20:18:34;100936.84;;;15.73;57.31
27613;BME280;15036;48.094;-1.690;2023-04-01T20:26:33;100939.94;;;15.09;59.23
27613;BME280;15036;48.094;-1.690;2023-04-01T20:31:59;100950.72;;;15.10;58.98
27613;BME280;15036;48.094;-1.690;2023-04-01T21:02:53;100983.34;;;14.69;60.98
27613;BME280;15036;48.094;-1.690;2023-04-01T21:05:34;100995.88;;;15.52;59.37
27613;BME280;15036;48.094;-1.690;2023-04-01T21:35:27;101025.00;;;15.04;63.93
27613;BME280;15036;48.094;-1.690;2023-04-01T21:38:03;101028.91;;;15.52;63.29
27613;BME280;15036;48.094;-1.690;2023-04-01T21:43:27;101045.72;;;14.62;65.22
27613;BME280;15036;48.094;-1.690;2023-04-01T21:53:41;101065.16;;;14.73;65.66
27613;BME280;15036;48.094;-1.690;2023-04-01T22:08:56;101085.06;;;15.38;63.27
27613;BME280;15036;48.094;-1.690;2023-04-01T22:14:11;101085.31;;;15.30;63.34
27613;BME280;15036;48.094;-1.690;2023-04-01T22:22:22;101104.22;;;15.20;63.49
27613;BME280;15036;48.094;-1.690;2023-04-01T22:25:11;101104.34;;;14.94;63.93
27613;BME280;15036;48.094;-1.690;2023-04-01T22:37:50;101127.06;;;14.76;64.78
27613;BME280;15036;48.094;-1.690;2023-04-01T22:40:27;101128.69;;;15.34;63.11
27613;BME280;15036;48.094;-1.690;2023-04-01T22:43:39;101123.31;;;15.15;63.81
27613;BME280;15036;48.094;-1.690;2023-04-01T22:45:48;101135.56;;;15.12;63.70
27613;BME280;15036;48.094;-1.690;2023-04-01T22:56:03;101138.94;;;15.58;62.45
27613;BME280;15036;48.094;-1.690;2023-04-01T22:58:30;101137.34;;;15.44;62.97
27613;BME280;15036;48.094;-1.690;2023-04-01T23:01:17;101141.31;;;15.04;64.08
27613;BME280;15036;48.094;-1.690;2023-04-01T23:03:46;101133.97;;;15.42;62.42
27613;BME280;15036;48.094;-1.690;2023-04-01T23:06:16;101151.13;;;15.31;63.14
27613;BME280;15036;48.094;-1.690;2023-04-01T23:11:10;101157.06;;;15.28;63.12
27613;BME280;15036;48.094;-1.690;2023-04-01T23:13:39;101143.69;;;15.38;62.63
27613;BME280;15036;48.094;-1.690;2023-04-01T23:16:06;101146.75;;;15.17;63.33
27613;BME280;15036;48.094;-1.690;2023-04-01T23:18:46;101153.88;;;14.87;64.31
27613;BME280;15036;48.094;-1.690;2023-04-01T23:21:18;101153.94;;;15.18;63.28
27613;BME280;15036;48.094;-1.690;2023-04-01T23:29:20;101174.47;;;14.65;64.86
27613;BME280;15036;48.094;-1.690;2023-04-01T23:31:56;101176.91;;;14.86;64.37
27613;BME280;15036;48.094;-1.690;2023-04-01T23:34:23;101176.91;;;14.93;63.89
27613;BME280;15036;48.094;-1.690;2023-04-01T23:36:50;101169.81;;;15.16;63.50
27613;BME280;15036;48.094;-1.690;2023-04-01T23:39:20;101162.56;;;15.28;62.61
27613;BME280;15036;48.094;-1.690;2023-04-01T23:41:46;101171.19;;;15.45;61.75
27613;BME280;15036;48.094;-1.690;2023-04-01T23:44:12;101191.44;;;15.06;63.46
27613;BME280;15036;48.094;-1.690;2023-04-01T23:46:39;101184.28;;;15.05;63.68
27613;BME280;15036;48.094;-1.690;2023-04-01T23:49:04;101189.28;;;15.59;61.53
27613;BME280;15036;48.094;-1.690;2023-04-01T23:51:37;101186.88;;;15.31;62.54